Briefing drone pour Decize

Rechercher une autre localisation

Conditions de vol :


Nous sommes le : Lundi 21 septembre 2020
Il est 15:07 UTC (17:07 LT)

Lever de soleil : 05:05 UTC (07:05 LT)
Coucher de soleil : 18:12 UTC (20:12 LT)

Météo

L'essentiel des conditions de vol

VIGILANCE MÉTÉO FRANCE - Nièvre (58)
Vigilance :
METAR de LFQG
LFQG 211430Z AUTO 28005KT 210V330 CAVOK 26/15 Q1014

Date d'émission: 21/09/2020
Heure d'émission: 14:30 UTC
Vent: 280° (variable du 210° au 330°) pour 5 KT (9 km/h)
Visibilité horizontale: > 10 km
Plafond : Plafond et visibilité OK (CAVOK)
Température: 26 °C
Point de rosée: 15 °C
Humidité: 51%
Pression (QNH): 1014 hPa
Prévision 24h pour Nevers (18 km)
Vent : 279° pour 2 KT (9 km/h)
Temperature Maxi: 24 °C
Temperature Min: 24 °C
Humidité : 51%
Condition : Nuageux



Warning: count(): Parameter must be an array or an object that implements Countable in /homepages/6/d509196549/htdocs/droneoxygene/briefing.php on line 743
WEBCAM POUR DECIZE

Réglementation

Voler en sécurité

CARTES AERONAUTIQUE 1/500.000
CARTES VAC (LFQG)
SUP AIP




Chargement des AIP...
NOTAM (DECIZE + Terrain à proximité / FIR )




Chargement des NOTAMS...
CONTACT PREFECTURE 58


Avertissement : Les données mises à disposition sont indicatives. Oxygène Drone ne pourra être tenu responsable de dégâts causés aux biens et aux personnes.